Male, Maldives
Current Conditions -  °F | °C
As of 7:00 PM on Saturday 20 Dec 2014 (Local Time) from VRMM Reporting Station
Broken Clouds Broken Clouds  
Wind Chill: 82°   Ceiling: 12000
Heat Index: 89°   Visibility: 6mi
Dew Point: 75°   Wind: 9mph
Humidity: 79%   Direction: 150°SSE
Pressure: 29.85"   Gusts: NA
Location:  4.17°N, 73.5°E
Report Text: VRMM 201400Z 15008KT 9999 FEW017TCU BKN12028/24 Q1011 TEMPO 5000 -SHRA
Loading
Personal Weather Stations






























Interactive Weather Map New forecast layout! Learn more

10-Day Weather Forecast

Advertisements
Track Severe Weather on mobile